createdAt,value
2018-12-01T00:00:29.742Z,78.46
2018-12-01T00:02:58.684Z,78.83
2018-12-01T00:05:28.178Z,78.47
2018-12-01T00:07:57.291Z,78.35
2018-12-01T00:10:26.579Z,78.23
2018-12-01T00:12:55.224Z,78.59
2018-12-01T00:15:26.104Z,78.87
2018-12-01T00:17:55.285Z,78.35
2018-12-01T00:20:25.274Z,78.29
2018-12-01T00:22:53.884Z,78.16
2018-12-01T00:25:22.429Z,78.45
2018-12-01T00:27:51.040Z,77.62
2018-12-01T00:30:20.559Z,78.31
2018-12-01T00:32:50.039Z,77.96
2018-12-01T00:35:18.614Z,78.12
2018-12-01T00:37:47.162Z,77.85
2018-12-01T00:40:22.556Z,77.98
2018-12-01T00:42:51.205Z,78.09
2018-12-01T00:45:22.886Z,78.40
2018-12-01T00:47:52.623Z,79.04
2018-12-01T00:50:24.179Z,78.41
2018-12-01T00:52:53.672Z,78.41
2018-12-01T00:55:22.830Z,78.61
2018-12-01T00:57:51.388Z,78.46
2018-12-01T01:00:25.295Z,78.64
2018-12-01T01:02:56.594Z,78.31
2018-12-01T01:05:27.271Z,78.16
2018-12-01T01:07:56.586Z,78.31
2018-12-01T01:10:27.159Z,78.76
2018-12-01T01:12:55.723Z,79.41
2018-12-01T01:15:24.467Z,79.03
2018-12-01T01:17:53.101Z,79.16
2018-12-01T01:20:22.856Z,79.05
2018-12-01T01:22:51.783Z,79.03
2018-12-01T01:25:20.390Z,79.18
2018-12-01T01:27:48.947Z,79.21
2018-12-01T01:30:19.555Z,78.94
2018-12-01T01:32:48.510Z,79.33
2018-12-01T01:35:17.111Z,79.15
2018-12-01T01:37:45.807Z,79.23
2018-12-01T01:40:15.634Z,79.70
2018-12-01T01:42:44.273Z,79.10
2018-12-01T01:45:14.158Z,79.25
2018-12-01T01:47:42.790Z,79.40
2018-12-01T01:50:15.420Z,78.92
2018-12-01T01:52:44.658Z,79.32
2018-12-01T01:55:13.316Z,79.50
2018-12-01T01:57:42.293Z,79.29
2018-12-01T02:00:21.013Z,79.01
2018-12-01T02:02:51.699Z,79.18
2018-12-01T02:05:22.338Z,79.60
2018-12-01T02:07:51.199Z,79.15
2018-12-01T02:10:20.825Z,79.41
2018-12-01T02:12:49.500Z,78.32
2018-12-01T02:15:18.042Z,78.43
2018-12-01T02:17:46.628Z,79.21
2018-12-01T02:20:16.652Z,78.87
2018-12-01T02:22:45.643Z,78.70
2018-12-01T02:25:16.335Z,79.24
2018-12-01T02:27:44.979Z,79.10
2018-12-01T02:30:14.817Z,79.29
2018-12-01T02:32:43.498Z,79.43
2018-12-01T02:35:28.991Z,78.83
2018-12-01T02:37:58.696Z,78.59
2018-12-01T02:40:27.219Z,78.99
2018-12-01T02:42:55.887Z,79.11
2018-12-01T02:45:35.808Z,79.50
2018-12-01T02:48:04.652Z,79.05
2018-12-01T02:50:33.182Z,79.59
2018-12-01T02:53:02.032Z,79.08
2018-12-01T02:55:30.794Z,79.26
2018-12-01T02:57:59.366Z,79.26
2018-12-01T03:00:27.992Z,79.01
2018-12-01T03:02:56.560Z,79.22
2018-12-01T03:05:25.128Z,79.32
2018-12-01T03:07:53.915Z,79.04
2018-12-01T03:10:23.093Z,79.04
2018-12-01T03:12:53.849Z,79.03
2018-12-01T03:15:22.463Z,78.27
2018-12-01T03:17:51.982Z,78.44
2018-12-01T03:20:20.757Z,78.86
2018-12-01T03:22:49.352Z,77.95
2018-12-01T03:25:19.128Z,78.75
2018-12-01T03:27:48.605Z,78.72
2018-12-01T03:30:24.052Z,78.76
2018-12-01T03:32:53.625Z,79.08
2018-12-01T03:35:23.274Z,79.27
2018-12-01T03:37:52.408Z,78.81
2018-12-01T03:40:21.934Z,78.71
2018-12-01T03:42:51.346Z,79.01
2018-12-01T03:45:21.063Z,78.67
2018-12-01T03:47:49.638Z,78.62
2018-12-01T03:50:24.074Z,78.59
2018-12-01T03:52:56.754Z,78.42
2018-12-01T03:55:33.738Z,79.05
2018-12-01T03:58:03.031Z,78.59
2018-12-01T04:00:33.314Z,78.48
2018-12-01T04:03:02.640Z,78.70
2018-12-01T04:05:31.710Z,78.74
2018-12-01T04:08:01.052Z,78.50
2018-12-01T04:10:29.666Z,78.58
2018-12-01T04:12:58.331Z,78.47
2018-12-01T04:15:27.335Z,78.60
2018-12-01T04:17:56.071Z,78.64
2018-12-01T04:20:24.662Z,78.49
2018-12-01T04:22:53.230Z,78.49
2018-12-01T04:25:22.022Z,78.46
2018-12-01T04:27:50.658Z,78.05
2018-12-01T04:30:21.340Z,78.56
2018-12-01T04:32:50.066Z,78.12
2018-12-01T04:35:20.706Z,78.57
2018-12-01T04:37:50.404Z,78.31
2018-12-01T04:40:19.082Z,77.61
2018-12-01T04:42:48.786Z,77.91
2018-12-01T04:45:18.101Z,78.51
2018-12-01T04:47:46.989Z,78.22
2018-12-01T04:50:17.510Z,78.55
2018-12-01T04:52:47.113Z,78.49
2018-12-01T04:55:16.862Z,78.91
2018-12-01T04:57:45.418Z,78.96
2018-12-01T05:00:16.122Z,78.93
2018-12-01T05:02:44.818Z,78.21
2018-12-01T05:05:18.754Z,78.65
2018-12-01T05:07:47.335Z,78.67
2018-12-01T05:10:16.798Z,78.73
2018-12-01T05:12:45.427Z,78.79
2018-12-01T05:15:15.960Z,79.16
2018-12-01T05:17:45.086Z,78.78
2018-12-01T05:20:18.766Z,78.55
2018-12-01T05:22:47.525Z,78.89
2018-12-01T05:25:16.201Z,78.86
2018-12-01T05:27:45.473Z,78.88
2018-12-01T05:30:14.183Z,78.57
2018-12-01T05:32:42.900Z,78.83
2018-12-01T05:35:15.776Z,79.13
2018-12-01T05:37:44.427Z,78.47
2018-12-01T05:40:13.735Z,78.91
2018-12-01T05:42:42.343Z,78.81
2018-12-01T05:45:15.325Z,78.62
2018-12-01T05:47:43.896Z,78.87
2018-12-01T05:50:13.600Z,78.38
2018-12-01T05:52:42.155Z,78.66
2018-12-01T05:55:11.906Z,78.39
2018-12-01T05:57:40.529Z,78.81
2018-12-01T06:00:12.284Z,78.84
2018-12-01T06:02:40.915Z,78.49
2018-12-01T06:05:10.401Z,78.80
2018-12-01T06:07:39.138Z,78.71
2018-12-01T06:10:12.915Z,78.63
2018-12-01T06:12:41.783Z,78.63
2018-12-01T06:15:11.698Z,78.64
2018-12-01T06:17:40.584Z,78.78
2018-12-01T06:20:12.473Z,78.66
2018-12-01T06:22:41.182Z,78.58
2018-12-01T06:25:11.234Z,78.77
2018-12-01T06:27:39.790Z,78.66
2018-12-01T06:30:10.995Z,78.79
2018-12-01T06:32:39.626Z,78.56
2018-12-01T06:35:08.376Z,79.09
2018-12-01T06:37:37.012Z,79.13
2018-12-01T06:40:08.755Z,78.99
2018-12-01T06:42:37.658Z,78.92
2018-12-01T06:45:08.863Z,78.77
2018-12-01T06:47:37.392Z,78.65
2018-12-01T06:50:09.255Z,79.08
2018-12-01T06:52:37.840Z,79.05
2018-12-01T06:55:07.864Z,78.96
2018-12-01T06:57:36.399Z,78.84
2018-12-01T07:00:08.313Z,79.03
2018-12-01T07:02:36.878Z,78.48
2018-12-01T07:05:06.650Z,78.58
2018-12-01T07:07:35.855Z,78.70
2018-12-01T07:10:05.519Z,78.42
2018-12-01T07:12:34.094Z,78.38
2018-12-01T07:15:03.393Z,78.62
2018-12-01T07:17:32.083Z,78.48
2018-12-01T07:20:00.595Z,78.49
2018-12-01T07:22:29.192Z,78.75
2018-12-01T07:24:57.714Z,78.96
2018-12-01T07:27:26.964Z,78.47
2018-12-01T07:29:58.089Z,78.43
2018-12-01T07:32:24.111Z,78.33
2018-12-01T07:34:52.753Z,78.30
2018-12-01T07:37:21.350Z,78.22
2018-12-01T07:39:50.162Z,78.02
2018-12-01T07:42:19.401Z,78.49
2018-12-01T07:44:49.295Z,78.13
2018-12-01T07:47:19.082Z,78.61
2018-12-01T07:49:48.240Z,78.03
2018-12-01T07:52:17.125Z,78.22
2018-12-01T07:54:45.826Z,78.52
2018-12-01T07:57:14.885Z,78.81
2018-12-01T07:59:43.263Z,78.22
2018-12-01T08:02:11.892Z,78.17
2018-12-01T08:04:40.536Z,77.46
2018-12-01T08:07:09.167Z,77.93
2018-12-01T08:09:37.752Z,77.40
2018-12-01T08:12:06.342Z,76.29
2018-12-01T08:14:34.953Z,77.20
2018-12-01T08:17:03.639Z,77.90
2018-12-01T08:19:32.274Z,78.33
2018-12-01T08:22:00.845Z,77.55
2018-12-01T08:24:29.390Z,77.24
2018-12-01T08:26:57.945Z,76.98
2018-12-01T08:29:26.561Z,77.86
2018-12-01T08:31:55.165Z,77.85
2018-12-01T08:34:23.739Z,77.37
2018-12-01T08:36:52.397Z,77.05
2018-12-01T08:39:20.928Z,77.18
2018-12-01T08:41:49.495Z,77.17
2018-12-01T08:44:18.010Z,76.05
2018-12-01T08:46:46.674Z,76.40
2018-12-01T08:49:15.322Z,76.98
2018-12-01T08:51:43.934Z,76.52
2018-12-01T08:54:12.468Z,76.79
2018-12-01T08:56:41.052Z,76.46
2018-12-01T08:59:09.847Z,75.99
2018-12-01T09:01:38.472Z,76.45
2018-12-01T09:04:07.063Z,76.35
2018-12-01T09:06:35.686Z,76.06
2018-12-01T09:09:05.666Z,75.31
2018-12-01T09:11:34.235Z,74.84
2018-12-01T09:14:02.966Z,74.37
2018-12-01T09:16:32.514Z,73.67
2018-12-01T09:19:01.096Z,73.27
2018-12-01T09:21:29.755Z,72.59
2018-12-01T09:23:58.378Z,70.44
2018-12-01T09:26:26.986Z,68.55
2018-12-01T09:28:55.580Z,69.34
2018-12-01T09:31:24.205Z,67.58
2018-12-01T09:33:52.923Z,69.20
2018-12-01T09:36:21.542Z,69.85
2018-12-01T09:38:50.088Z,69.11
2018-12-01T09:41:18.618Z,64.26
2018-12-01T09:43:47.197Z,65.71
2018-12-01T09:46:15.771Z,65.08
2018-12-01T09:48:44.434Z,66.83
2018-12-01T09:51:13.179Z,65.42
2018-12-01T09:53:41.685Z,66.38
2018-12-01T09:56:10.279Z,65.91
2018-12-01T09:58:39.964Z,66.98
2018-12-01T10:01:09.423Z,68.07
2018-12-01T10:03:37.998Z,67.74
2018-12-01T10:06:08.755Z,67.11
2018-12-01T10:08:39.055Z,68.93
2018-12-01T10:11:09.960Z,68.35
2018-12-01T10:13:40.993Z,68.34
2018-12-01T10:16:12.220Z,68.58
2018-12-01T10:18:43.405Z,68.43
2018-12-01T10:21:14.218Z,68.57
2018-12-01T10:23:45.101Z,67.51
2018-12-01T10:26:16.271Z,67.86
2018-12-01T10:28:47.537Z,67.66
2018-12-01T10:31:16.782Z,68.42
2018-12-01T10:33:45.381Z,68.02
2018-12-01T10:36:14.602Z,69.35
2018-12-01T10:38:43.153Z,69.74
2018-12-01T10:41:11.676Z,69.31
2018-12-01T10:43:40.350Z,68.69
2018-12-01T10:46:09.010Z,68.50
2018-12-01T10:48:37.695Z,64.84
2018-12-01T10:51:13.394Z,66.31
2018-12-01T10:53:41.919Z,63.44
2018-12-01T10:56:11.150Z,61.72
2018-12-01T10:58:39.710Z,61.90
2018-12-01T11:01:13.622Z,60.41
2018-12-01T11:03:48.145Z,59.53
2018-12-01T11:06:18.144Z,58.55
2018-12-01T11:08:46.811Z,59.25
2018-12-01T11:11:15.505Z,59.31
2018-12-01T11:13:44.135Z,58.55
2018-12-01T11:16:12.746Z,57.06
2018-12-01T11:18:41.312Z,56.47
2018-12-01T11:21:09.891Z,55.55
2018-12-01T11:23:38.604Z,54.18
2018-12-01T11:26:07.315Z,54.90
2018-12-01T11:28:35.942Z,55.75
2018-12-01T11:31:04.962Z,58.33
2018-12-01T11:33:33.563Z,60.30
2018-12-01T11:36:02.182Z,61.48
2018-12-01T11:38:30.873Z,62.85
2018-12-01T11:40:59.451Z,62.98
2018-12-01T11:43:28.567Z,62.98
2018-12-01T11:45:57.078Z,61.72
2018-12-01T11:48:25.854Z,61.82
2018-12-01T11:50:54.452Z,62.90
2018-12-01T11:53:23.051Z,62.43
2018-12-01T11:55:51.601Z,62.07
2018-12-01T11:58:20.198Z,61.50
2018-12-01T12:00:48.863Z,62.04
2018-12-01T12:03:17.388Z,60.64
2018-12-01T12:06:04.034Z,61.50
2018-12-01T12:08:53.321Z,60.43
2018-12-01T12:11:42.880Z,56.47
2018-12-01T12:14:25.982Z,54.18
2018-12-01T12:17:08.926Z,54.61
2018-12-01T12:19:54.249Z,53.64
2018-12-01T12:22:31.396Z,53.60
2018-12-01T12:25:11.435Z,52.92
2018-12-01T12:27:47.588Z,51.92
2018-12-01T12:30:25.930Z,51.76
2018-12-01T12:32:52.879Z,53.45
2018-12-01T12:35:21.416Z,53.61
2018-12-01T12:37:50.331Z,54.01
2018-12-01T12:40:27.605Z,55.58
2018-12-01T12:42:59.869Z,55.65
2018-12-01T12:45:28.651Z,57.09
2018-12-01T12:47:57.184Z,58.41
2018-12-01T12:50:25.913Z,56.78
2018-12-01T12:52:55.539Z,56.84
2018-12-01T12:55:26.016Z,57.39
2018-12-01T12:57:54.714Z,57.43
2018-12-01T13:00:25.175Z,57.57
2018-12-01T13:02:59.117Z,56.74
2018-12-01T13:05:29.235Z,56.56
2018-12-01T13:07:57.858Z,56.07
2018-12-01T13:10:27.381Z,55.24
2018-12-01T13:12:58.199Z,54.99
2018-12-01T13:15:26.959Z,54.14
2018-12-01T13:17:55.494Z,53.56
2018-12-01T13:20:25.041Z,54.01
2018-12-01T13:22:56.907Z,54.31
2018-12-01T13:25:25.666Z,54.60
2018-12-01T13:27:59.919Z,54.39
2018-12-01T13:30:30.599Z,55.49
2018-12-01T13:32:59.523Z,54.69
2018-12-01T13:35:28.235Z,55.32
2018-12-01T13:37:56.934Z,55.32
2018-12-01T13:40:25.553Z,55.11
2018-12-01T13:42:54.096Z,57.02
2018-12-01T13:45:22.707Z,56.50
2018-12-01T13:47:51.646Z,56.95
2018-12-01T13:50:21.343Z,59.01
2018-12-01T13:52:58.115Z,58.95
2018-12-01T13:55:28.292Z,59.37
2018-12-01T13:57:56.837Z,59.58
2018-12-01T14:00:26.619Z,59.79
2018-12-01T14:02:55.167Z,59.32
2018-12-01T14:05:23.830Z,59.89
2018-12-01T14:07:52.366Z,59.78
2018-12-01T14:10:22.205Z,60.75
2018-12-01T14:12:53.202Z,61.15
2018-12-01T14:15:22.987Z,61.33
2018-12-01T14:17:51.671Z,61.53
2018-12-01T14:20:20.685Z,61.78
2018-12-01T14:22:50.287Z,62.33
2018-12-01T14:25:20.708Z,62.12
2018-12-01T14:27:55.771Z,62.72
2018-12-01T14:30:24.930Z,63.48
2018-12-01T14:32:53.656Z,64.04
2018-12-01T14:35:27.212Z,64.02
2018-12-01T14:37:58.472Z,64.43
2018-12-01T14:40:29.176Z,63.85
2018-12-01T14:42:58.464Z,63.93
2018-12-01T14:45:27.922Z,64.78
2018-12-01T14:47:56.997Z,64.35
2018-12-01T14:50:25.577Z,65.00
2018-12-01T14:52:56.408Z,65.61
2018-12-01T14:55:25.120Z,65.27
2018-12-01T14:57:55.086Z,65.40
2018-12-01T15:00:24.850Z,66.03
2018-12-01T15:02:54.735Z,66.04
2018-12-01T15:05:23.823Z,66.88
2018-12-01T15:07:52.458Z,67.19
2018-12-01T15:10:24.813Z,67.10
2018-12-01T15:12:53.896Z,67.65
2018-12-01T15:15:24.906Z,67.75
2018-12-01T15:17:54.074Z,68.18
2018-12-01T15:20:26.791Z,67.87
2018-12-01T15:22:59.798Z,68.27
2018-12-01T15:25:29.713Z,68.72
2018-12-01T15:27:58.549Z,69.10
2018-12-01T15:30:31.109Z,69.33
2018-12-01T15:33:16.603Z,69.54
2018-12-01T15:35:47.919Z,69.61
2018-12-01T15:38:16.771Z,70.26
2018-12-01T15:40:49.082Z,70.58
2018-12-01T15:43:18.388Z,70.08
2018-12-01T15:45:47.050Z,70.31
2018-12-01T15:48:16.044Z,70.93
2018-12-01T15:50:44.628Z,70.20
2018-12-01T15:53:15.497Z,70.87
2018-12-01T15:55:46.151Z,70.47
2018-12-01T15:58:15.204Z,70.78
2018-12-01T16:00:44.434Z,70.69
2018-12-01T16:03:13.067Z,70.67
2018-12-01T16:05:41.770Z,70.55
2018-12-01T16:08:11.340Z,71.12
2018-12-01T16:10:40.562Z,70.65
2018-12-01T16:13:11.226Z,70.62
2018-12-01T16:15:43.368Z,71.56
2018-12-01T16:18:12.353Z,71.68
2018-12-01T16:20:41.947Z,71.35
2018-12-01T16:23:12.047Z,71.28
2018-12-01T16:25:42.104Z,71.34
2018-12-01T16:28:11.963Z,71.70
2018-12-01T16:30:43.216Z,70.88
2018-12-01T16:33:13.767Z,71.38
2018-12-01T16:35:45.808Z,71.49
2018-12-01T16:38:16.210Z,72.08
2018-12-01T16:40:49.570Z,71.73
2018-12-01T16:43:18.351Z,71.15
2018-12-01T16:45:48.267Z,70.99
2018-12-01T16:48:16.853Z,71.90
2018-12-01T16:50:46.714Z,71.98
2018-12-01T16:53:16.987Z,71.14
2018-12-01T16:55:46.360Z,71.32
2018-12-01T16:58:15.861Z,71.99
2018-12-01T17:00:45.094Z,71.52
2018-12-01T17:03:16.946Z,71.95
2018-12-01T17:05:49.880Z,71.72
2018-12-01T17:08:19.874Z,71.90
2018-12-01T17:10:49.724Z,71.74
2018-12-01T17:13:22.599Z,72.06
2018-12-01T17:15:53.112Z,72.26
2018-12-01T17:18:22.531Z,72.30
2018-12-01T17:20:51.578Z,71.96
2018-12-01T17:23:21.074Z,72.59
2018-12-01T17:25:51.061Z,72.47
2018-12-01T17:28:21.692Z,72.87
2018-12-01T17:30:51.558Z,72.58
2018-12-01T17:33:23.080Z,72.18
2018-12-01T17:35:53.790Z,72.45
2018-12-01T17:38:24.096Z,72.54
2018-12-01T17:41:07.098Z,72.65
2018-12-01T17:43:40.653Z,73.02
2018-12-01T17:46:11.051Z,72.97
2018-12-01T17:48:40.816Z,72.90
2018-12-01T17:51:10.564Z,73.26
2018-12-01T17:53:40.803Z,73.20
2018-12-01T17:56:11.118Z,73.40
2018-12-01T17:58:43.018Z,73.20
2018-12-01T18:01:13.508Z,72.96
2018-12-01T18:03:44.941Z,72.92
2018-12-01T18:06:14.806Z,72.46
2018-12-01T18:08:44.592Z,73.03
2018-12-01T18:11:14.677Z,72.83
2018-12-01T18:13:43.945Z,72.62
2018-12-01T18:16:14.556Z,72.73
2018-12-01T18:18:43.861Z,72.41
2018-12-01T18:21:14.146Z,72.81
2018-12-01T18:23:43.808Z,72.73
2018-12-01T18:26:13.354Z,72.98
2018-12-01T18:28:44.871Z,72.04
2018-12-01T18:31:15.983Z,73.37
2018-12-01T18:33:48.305Z,73.59
2018-12-01T18:36:17.379Z,73.60
2018-12-01T18:38:48.519Z,73.54
2018-12-01T18:41:17.942Z,73.81
2018-12-01T18:43:47.320Z,73.16
2018-12-01T18:46:18.368Z,72.98
2018-12-01T18:48:47.681Z,73.46
2018-12-01T18:51:17.756Z,72.85
2018-12-01T18:53:47.687Z,73.45
2018-12-01T18:56:17.525Z,73.77
2018-12-01T18:58:48.169Z,74.07
2018-12-01T19:01:19.377Z,73.45
2018-12-01T19:03:48.702Z,73.46
2018-12-01T19:06:19.327Z,73.31
2018-12-01T19:08:49.777Z,73.74
2018-12-01T19:11:20.334Z,73.61
2018-12-01T19:13:50.586Z,73.52
2018-12-01T19:16:20.857Z,74.16
2018-12-01T19:18:51.108Z,73.74
2018-12-01T19:21:21.591Z,73.96
2018-12-01T19:23:53.000Z,73.59
2018-12-01T19:26:24.008Z,73.97
2018-12-01T19:28:53.263Z,74.45
2018-12-01T19:31:24.094Z,74.01
2018-12-01T19:33:54.607Z,74.27
2018-12-01T19:36:24.847Z,74.13
2018-12-01T19:38:55.475Z,74.37
2018-12-01T19:41:26.338Z,73.81
2018-12-01T19:43:56.344Z,74.11
2018-12-01T19:46:25.912Z,74.43
2018-12-01T19:48:56.885Z,74.45
2018-12-01T19:51:26.351Z,74.29
2018-12-01T19:53:56.056Z,74.18
2018-12-01T19:56:26.268Z,74.81
2018-12-01T19:58:55.736Z,74.62
2018-12-01T20:01:27.519Z,74.76
2018-12-01T20:03:57.187Z,74.51
2018-12-01T20:06:25.790Z,74.30
2018-12-01T20:08:54.430Z,74.65
2018-12-01T20:11:22.970Z,74.65
2018-12-01T20:13:52.483Z,74.55
2018-12-01T20:16:26.124Z,74.43
2018-12-01T20:18:55.308Z,74.48
2018-12-01T20:21:24.510Z,74.77
2018-12-01T20:23:53.157Z,74.48
2018-12-01T20:26:21.668Z,74.89
2018-12-01T20:28:50.823Z,74.45
2018-12-01T20:31:19.398Z,74.72
2018-12-01T20:33:47.958Z,74.57
2018-12-01T20:36:25.737Z,74.51
2018-12-01T20:39:05.822Z,74.72
2018-12-01T20:41:34.451Z,74.78
2018-12-01T20:44:03.013Z,75.27
2018-12-01T20:46:31.642Z,74.66
2018-12-01T20:49:00.500Z,74.54
2018-12-01T20:51:30.466Z,74.62
2018-12-01T20:53:59.263Z,74.87
2018-12-01T20:56:30.305Z,75.26
2018-12-01T20:58:59.089Z,75.07
2018-12-01T21:01:29.013Z,75.29
2018-12-01T21:03:57.555Z,75.26
2018-12-01T21:06:26.159Z,75.20
2018-12-01T21:08:55.889Z,74.94
2018-12-01T21:11:24.444Z,74.61
2018-12-01T21:13:53.440Z,75.07
2018-12-01T21:16:22.311Z,75.03
2018-12-01T21:18:51.315Z,75.19
2018-12-01T21:21:21.155Z,75.41
2018-12-01T21:23:50.049Z,75.25
2018-12-01T21:26:18.651Z,75.00
2018-12-01T21:28:47.224Z,74.95
2018-12-01T21:31:15.832Z,75.18
2018-12-01T21:33:44.432Z,75.84
2018-12-01T21:36:12.982Z,75.66
2018-12-01T21:38:41.640Z,75.56
2018-12-01T21:41:10.865Z,75.24
2018-12-01T21:43:40.043Z,75.76
2018-12-01T21:46:08.859Z,75.67
2018-12-01T21:48:37.447Z,75.41
2018-12-01T21:51:06.092Z,74.67
2018-12-01T21:53:35.686Z,74.76
2018-12-01T21:56:04.520Z,75.63
2018-12-01T21:58:33.183Z,75.49
2018-12-01T22:01:02.590Z,75.32
2018-12-01T22:03:32.033Z,75.40
2018-12-01T22:06:04.711Z,75.58
2018-12-01T22:08:34.087Z,75.09
2018-12-01T22:11:02.787Z,75.10
2018-12-01T22:13:31.348Z,75.69
2018-12-01T22:16:00.002Z,75.50
2018-12-01T22:18:28.630Z,75.24
2018-12-01T22:20:58.134Z,75.06
2018-12-01T22:23:26.737Z,75.19
2018-12-01T22:25:55.460Z,75.25
2018-12-01T22:28:24.038Z,75.39
2018-12-01T22:30:53.406Z,75.20
2018-12-01T22:33:24.977Z,74.95
2018-12-01T22:35:53.735Z,74.69
2018-12-01T22:38:22.887Z,74.89
2018-12-01T22:40:51.623Z,75.14
2018-12-01T22:43:20.659Z,75.35
2018-12-01T22:45:49.456Z,75.18
2018-12-01T22:48:19.798Z,75.04
2018-12-01T22:50:50.359Z,75.89
2018-12-01T22:53:18.957Z,75.87
2018-12-01T22:55:47.793Z,75.36
2018-12-01T22:58:19.588Z,75.08
2018-12-01T23:00:50.682Z,74.92
2018-12-01T23:03:19.774Z,75.07
2018-12-01T23:05:48.397Z,75.37
2018-12-01T23:08:20.375Z,75.44
2018-12-01T23:10:48.961Z,75.33
2018-12-01T23:13:17.487Z,75.38
2018-12-01T23:15:46.095Z,74.71
2018-12-01T23:18:17.213Z,75.10
2018-12-01T23:20:46.850Z,75.11
2018-12-01T23:23:15.496Z,75.20
2018-12-01T23:25:44.199Z,74.71
2018-12-01T23:28:12.881Z,74.93
2018-12-01T23:30:46.355Z,74.95
2018-12-01T23:33:16.782Z,74.59
2018-12-01T23:35:46.223Z,74.85
2018-12-01T23:38:14.759Z,74.31
2018-12-01T23:40:44.319Z,74.28
2018-12-01T23:43:12.896Z,74.72
2018-12-01T23:45:43.051Z,74.28
2018-12-01T23:48:11.740Z,74.38
2018-12-01T23:50:42.892Z,74.07
2018-12-01T23:53:13.175Z,74.34
2018-12-01T23:55:41.759Z,73.90
2018-12-01T23:58:10.325Z,73.78
